createdAt,value
2023-05-09T00:00:32.079Z,7.80
2023-05-09T00:05:48.608Z,8.30
2023-05-09T00:10:55.108Z,7.50
2023-05-09T00:15:59.409Z,7.90
2023-05-09T00:21:04.664Z,7.70
2023-05-09T00:26:08.901Z,8.60
2023-05-09T00:31:14.052Z,8.40
2023-05-09T00:36:18.530Z,8.00
2023-05-09T00:41:23.413Z,8.80
2023-05-09T00:46:28.328Z,8.00
2023-05-09T00:51:33.174Z,8.00
2023-05-09T00:56:38.134Z,8.10
2023-05-09T01:01:44.110Z,8.10
2023-05-09T01:07:10.083Z,7.20
2023-05-09T01:12:40.086Z,7.10
2023-05-09T01:18:10.258Z,8.30
2023-05-09T01:23:37.425Z,7.50
2023-05-09T01:29:13.574Z,8.30
2023-05-09T01:34:19.056Z,7.60
2023-05-09T01:39:24.231Z,8.00
2023-05-09T01:44:34.480Z,7.50
2023-05-09T01:49:40.617Z,8.20
2023-05-09T01:54:46.387Z,7.80
2023-05-09T01:59:53.910Z,8.40
2023-05-09T02:04:58.197Z,8.10
2023-05-09T02:10:05.555Z,6.90
2023-05-09T02:15:11.971Z,7.20
2023-05-09T02:20:19.722Z,7.90
2023-05-09T02:25:23.731Z,7.20
2023-05-09T02:30:31.996Z,8.60
2023-05-09T02:35:38.303Z,8.80
2023-05-09T02:40:45.706Z,7.20
2023-05-09T02:45:50.262Z,8.30
2023-05-09T02:50:55.549Z,10.70
2023-05-09T02:55:59.807Z,11.80
2023-05-09T03:01:04.563Z,8.60
2023-05-09T03:06:08.899Z,8.80
2023-05-09T03:11:12.981Z,7.80
2023-05-09T03:16:18.873Z,7.90
2023-05-09T03:21:23.906Z,7.60
2023-05-09T03:26:31.188Z,8.00
2023-05-09T03:31:36.506Z,7.50
2023-05-09T03:36:46.593Z,8.20
2023-05-09T03:41:52.335Z,8.10
2023-05-09T03:46:56.596Z,8.60
2023-05-09T03:52:03.916Z,7.60
2023-05-09T03:57:09.547Z,8.20
2023-05-09T04:02:15.101Z,8.00
2023-05-09T04:07:21.215Z,7.60
2023-05-09T04:12:25.710Z,6.60
2023-05-09T04:17:30.208Z,6.30
2023-05-09T04:22:34.663Z,6.00
2023-05-09T04:27:39.056Z,6.20
2023-05-09T04:32:46.358Z,5.80
2023-05-09T04:37:53.766Z,5.80
2023-05-09T04:42:59.447Z,5.80
2023-05-09T04:48:06.660Z,6.80
2023-05-09T04:53:11.525Z,5.80
2023-05-09T04:58:16.564Z,5.40
2023-05-09T05:03:22.656Z,5.80
2023-05-09T05:08:27.777Z,6.00
2023-05-09T05:13:31.846Z,5.60
2023-05-09T05:18:37.622Z,5.90
2023-05-09T05:23:42.613Z,5.20
2023-05-09T05:28:48.113Z,5.40
2023-05-09T05:33:53.260Z,5.20
2023-05-09T05:38:58.290Z,5.40
2023-05-09T05:44:03.225Z,4.50
2023-05-09T05:49:09.155Z,4.90
2023-05-09T05:54:13.137Z,4.80
2023-05-09T05:59:17.166Z,4.10
2023-05-09T06:04:21.704Z,4.90
2023-05-09T06:09:26.396Z,4.90
2023-05-09T06:14:30.258Z,4.60
2023-05-09T06:19:34.928Z,4.60
2023-05-09T06:24:39.103Z,4.60
2023-05-09T06:29:42.810Z,4.60
2023-05-09T06:34:47.613Z,4.20
2023-05-09T06:39:51.324Z,3.80
2023-05-09T06:44:55.316Z,3.80
2023-05-09T06:49:58.938Z,3.90
2023-05-09T06:55:08.924Z,3.90
2023-05-09T07:00:16.082Z,3.90
2023-05-09T07:05:19.906Z,4.00
2023-05-09T07:10:24.029Z,3.70
2023-05-09T07:15:40.422Z,3.60
2023-05-09T07:20:45.638Z,3.20
2023-05-09T07:25:49.413Z,3.20
2023-05-09T07:30:55.593Z,3.40
2023-05-09T07:36:00.734Z,3.00
2023-05-09T07:41:07.196Z,3.10
2023-05-09T07:46:11.774Z,3.00
2023-05-09T07:51:16.459Z,3.40
2023-05-09T07:56:20.074Z,3.30
2023-05-09T08:01:23.895Z,3.50
2023-05-09T08:06:29.079Z,2.80
2023-05-09T08:11:36.400Z,3.50
2023-05-09T08:16:40.148Z,3.80
2023-05-09T08:21:43.936Z,3.20
2023-05-09T08:26:48.531Z,2.60
2023-05-09T08:31:53.425Z,2.70
2023-05-09T08:36:57.293Z,2.80
2023-05-09T08:42:02.306Z,2.50
2023-05-09T08:47:07.111Z,2.60
2023-05-09T08:52:11.974Z,2.90
2023-05-09T08:57:16.060Z,3.20
2023-05-09T09:02:20.283Z,2.70
2023-05-09T09:07:26.284Z,2.80
2023-05-09T09:12:30.219Z,3.20
2023-05-09T09:17:33.999Z,2.80
2023-05-09T09:22:38.731Z,3.00
2023-05-09T09:27:42.689Z,2.50
2023-05-09T09:32:46.560Z,2.40
2023-05-09T09:37:59.857Z,2.70
2023-05-09T09:43:08.733Z,2.70
2023-05-09T09:48:13.755Z,2.60
2023-05-09T09:53:20.815Z,2.40
2023-05-09T09:58:25.941Z,2.30
2023-05-09T10:03:39.293Z,2.50
2023-05-09T10:08:47.271Z,2.40
2023-05-09T10:13:51.851Z,2.60
2023-05-09T10:18:56.008Z,2.70
2023-05-09T10:24:00.883Z,2.30
2023-05-09T10:29:08.668Z,2.40
2023-05-09T10:34:13.722Z,3.00
2023-05-09T10:39:20.922Z,2.30
2023-05-09T10:44:25.800Z,2.60
2023-05-09T10:49:30.087Z,2.60
2023-05-09T10:54:37.127Z,2.10
2023-05-09T10:59:42.548Z,3.00
2023-05-09T11:04:46.286Z,3.10
2023-05-09T11:09:54.365Z,2.70
2023-05-09T11:15:08.139Z,3.30
2023-05-09T11:20:11.728Z,2.60
2023-05-09T11:25:18.198Z,1.90
2023-05-09T11:30:23.089Z,2.50
2023-05-09T11:35:27.620Z,2.60
2023-05-09T11:40:32.174Z,2.50
2023-05-09T11:45:35.892Z,2.40
2023-05-09T11:50:41.504Z,2.40
2023-05-09T11:55:45.130Z,2.70
2023-05-09T12:00:49.537Z,3.10
2023-05-09T12:05:55.552Z,2.60
2023-05-09T12:11:09.279Z,2.20
2023-05-09T12:16:13.236Z,2.10
2023-05-09T12:21:18.626Z,2.40
2023-05-09T12:26:23.262Z,1.90
2023-05-09T12:31:27.056Z,2.40
2023-05-09T12:36:35.366Z,2.50
2023-05-09T12:42:00.617Z,2.10
2023-05-09T12:47:05.673Z,2.40
2023-05-09T12:52:19.437Z,2.30
2023-05-09T12:57:25.552Z,2.40
2023-05-09T13:02:35.362Z,2.60
2023-05-09T13:07:43.859Z,2.30
2023-05-09T13:12:49.489Z,2.10
2023-05-09T13:17:54.501Z,2.30
2023-05-09T13:22:58.199Z,2.10
2023-05-09T13:28:02.436Z,2.40
2023-05-09T13:33:23.775Z,2.50
2023-05-09T13:38:31.288Z,2.50
2023-05-09T13:43:35.942Z,2.20
2023-05-09T13:48:40.143Z,2.00
2023-05-09T13:53:43.927Z,2.30
2023-05-09T13:58:47.702Z,2.00
2023-05-09T14:03:51.626Z,2.20
2023-05-09T14:08:56.992Z,2.30
2023-05-09T14:14:01.085Z,2.20
2023-05-09T14:19:05.029Z,2.20
2023-05-09T14:24:12.061Z,2.70
2023-05-09T14:29:17.150Z,2.50
2023-05-09T14:34:21.159Z,2.00
2023-05-09T14:39:25.753Z,2.20
2023-05-09T14:44:30.123Z,2.30
2023-05-09T14:49:39.178Z,2.00
2023-05-09T14:54:43.300Z,2.50
2023-05-09T14:59:47.245Z,2.40
2023-05-09T15:04:52.044Z,2.40
2023-05-09T15:09:55.873Z,2.40
2023-05-09T15:15:13.339Z,2.40
2023-05-09T15:20:20.187Z,2.50
2023-05-09T15:25:25.392Z,2.70
2023-05-09T15:30:30.003Z,2.90
2023-05-09T15:35:34.190Z,2.90
2023-05-09T15:40:41.374Z,2.90
2023-05-09T15:45:48.653Z,2.60
2023-05-09T15:50:54.139Z,3.20
2023-05-09T15:55:58.189Z,3.40
2023-05-09T16:01:06.113Z,2.40
2023-05-09T16:06:10.941Z,2.80
2023-05-09T16:11:15.827Z,2.50
2023-05-09T16:16:19.849Z,2.30
2023-05-09T16:21:28.102Z,3.40
2023-05-09T16:26:32.285Z,2.40
2023-05-09T16:31:36.158Z,2.80
2023-05-09T16:36:40.371Z,2.20
2023-05-09T16:41:45.317Z,2.60
2023-05-09T16:46:48.967Z,2.40
2023-05-09T16:51:54.093Z,2.30
2023-05-09T16:56:57.991Z,2.70
2023-05-09T17:02:01.998Z,2.60
2023-05-09T17:07:07.552Z,2.70
2023-05-09T17:12:17.816Z,2.70
2023-05-09T17:17:23.149Z,2.60
2023-05-09T17:22:27.452Z,3.10
2023-05-09T17:27:34.683Z,3.10
2023-05-09T17:32:42.733Z,2.40
2023-05-09T17:37:46.492Z,2.60
2023-05-09T17:42:50.672Z,2.40
2023-05-09T17:47:54.791Z,2.80
2023-05-09T17:52:58.918Z,2.60
2023-05-09T17:58:02.724Z,2.10
2023-05-09T18:03:06.607Z,2.30
2023-05-09T18:08:10.489Z,2.70
2023-05-09T18:13:14.517Z,2.60
2023-05-09T18:18:18.603Z,2.60
2023-05-09T18:23:25.308Z,2.60
2023-05-09T18:28:29.873Z,2.90
2023-05-09T18:33:40.019Z,2.70
2023-05-09T18:38:44.886Z,2.70
2023-05-09T18:43:49.986Z,3.40
2023-05-09T18:48:55.537Z,3.50
2023-05-09T18:54:03.389Z,3.70
2023-05-09T18:59:09.992Z,3.90
2023-05-09T19:04:15.376Z,4.10
2023-05-09T19:09:22.266Z,4.30
2023-05-09T19:14:28.741Z,5.40
2023-05-09T19:19:35.476Z,4.50
2023-05-09T19:24:43.710Z,4.50
2023-05-09T19:29:49.931Z,4.50
2023-05-09T19:34:56.186Z,4.20
2023-05-09T19:40:08.022Z,4.30
2023-05-09T19:45:23.656Z,4.50
2023-05-09T19:50:31.741Z,4.70
2023-05-09T19:55:39.802Z,4.30
2023-05-09T20:00:56.384Z,4.70
2023-05-09T20:11:26.546Z,3.80
2023-05-09T20:16:39.013Z,4.10
2023-05-09T20:21:48.836Z,3.90
2023-05-09T20:26:57.872Z,3.80
2023-05-09T20:32:11.205Z,3.50
2023-05-09T20:37:18.064Z,3.60
2023-05-09T20:42:28.995Z,3.90
2023-05-09T20:52:39.639Z,4.10
2023-05-09T20:57:43.682Z,3.70
2023-05-09T21:02:48.120Z,3.40
2023-05-09T21:07:52.070Z,3.40
2023-05-09T21:12:56.184Z,3.80
2023-05-09T21:18:00.531Z,3.60
2023-05-09T21:23:05.272Z,4.30
2023-05-09T21:28:09.524Z,3.40
2023-05-09T21:33:13.852Z,4.80
2023-05-09T21:38:17.869Z,5.40
2023-05-09T21:43:21.734Z,4.80
2023-05-09T21:48:27.183Z,3.70
2023-05-09T21:53:31.112Z,3.90
2023-05-09T21:58:34.963Z,3.60
2023-05-09T22:03:40.428Z,4.10
2023-05-09T22:08:46.034Z,3.10
2023-05-09T22:13:51.047Z,3.10
2023-05-09T22:18:55.331Z,3.50
2023-05-09T22:23:59.478Z,3.60
2023-05-09T22:29:03.826Z,3.20
2023-05-09T22:34:08.487Z,4.20
2023-05-09T22:39:14.586Z,4.00
2023-05-09T22:44:18.709Z,4.50
2023-05-09T22:49:23.301Z,5.20
2023-05-09T22:54:27.772Z,4.20
2023-05-09T22:59:32.586Z,4.10
2023-05-09T23:04:36.883Z,3.70
2023-05-09T23:09:41.240Z,3.70
2023-05-09T23:14:46.930Z,3.90
2023-05-09T23:19:51.529Z,3.70
2023-05-09T23:24:56.045Z,3.60
2023-05-09T23:30:00.164Z,3.90
2023-05-09T23:35:06.267Z,3.60
2023-05-09T23:40:12.424Z,3.90
2023-05-09T23:45:17.537Z,3.90
2023-05-09T23:50:22.561Z,3.70
2023-05-09T23:55:26.581Z,4.40
